Aeroporto :
LOGIN :

Iscrizione | Disclaimer

   EN    FR    IT 

 










Sommario :    VFR   VFR Marginale   IFR   IFR Intensivo   IFR Molto Intensivo
Visibilità : 
Base nubi : 
>= 8 km
>= 3000ft
5 / 8 km
1000 / 3000 ft
1500m / 5 km
500 / 1000 ft
800 / 1500m
200 / 500 ft
< 800m
< 200 ft
Simboli :   Temporali  Nebbia  Neve Forte  Precipitazioni Forti  Vento > 20 kt
SIGMETs :   Varie  Temporali  Ghiacco  Turbolenza  Onda orograficha  Ceneri Vulcaniche






- Altitudine del aeroporto : 364 ft


LFAQ - Albert Bray

ULTIMO METAR :
  • 172130Z AUTO 05004KT 1800 BR BKN013 02/02 Q1039

METARs OBSOLETI :
  • 172100Z AUTO 03002KT 0700 0600 R27/1100U FG NSC 02/01 Q1039
  • 172030Z AUTO VRB01KT 6000 0550 R27/0650D BCFG NSC 03/03 Q1039
  • 172000Z AUTO 33002KT CAVOK 04/04 Q1039
  • 171930Z AUTO 03002KT 5000 BR NSC 03/03 Q1038
  • 171900Z AUTO 03002KT 7000 NSC 04/03 Q1038

TAF TAF LFAQ
Valido dal 17 a 15 ore il 18 a 00 ore UTC


171400Z 1715/1724 30005KT 9999 SCT010
BECMG 1717/1720 0500 FG VV///



MetMap, La meteo Aeronautica in un colpo d'occhio ! - Copyright ORBIFLY Dicembre 2007 - Disclaimer

ORBIFLY MET'MAP TEAM :

Programmazione e sviluppo : Alexandra Zaïnal
Concezione : Baudouin d'Aumeries
Aiuto per la programmazione : Marc-Olivier Méhu
Supporto tecnico e logistico : Manuel Goepfert
Aiuto per la traduzione : Arnaldo La Scala

Contatto : metmap@orbifly.com




FONTI E CREDITI :

   NOAA